sensor_id;sensor_type;location;lat;lon;timestamp;pressure;altitude;pressure_sealevel;temperature;humidity
62791;BME280;48830;53.426;10.300;2023-08-07T00:00:14;100390.22;;;23.69;85.41
62791;BME280;48830;53.426;10.300;2023-08-07T00:02:40;100390.22;;;23.69;85.02
62791;BME280;48830;53.426;10.300;2023-08-07T00:05:05;100386.78;;;23.67;85.24
62791;BME280;48830;53.426;10.300;2023-08-07T00:07:31;100381.56;;;23.67;85.42
62791;BME280;48830;53.426;10.300;2023-08-07T00:09:56;100384.97;;;23.69;85.45
62791;BME280;48830;53.426;10.300;2023-08-07T00:12:22;100384.97;;;23.69;85.56
62791;BME280;48830;53.426;10.300;2023-08-07T00:14:48;100380.56;;;23.70;85.64
62791;BME280;48830;53.426;10.300;2023-08-07T00:17:15;100378.81;;;23.70;85.53
62791;BME280;48830;53.426;10.300;2023-08-07T00:19:40;100384.97;;;23.69;85.16
62791;BME280;48830;53.426;10.300;2023-08-07T00:22:06;100374.47;;;23.69;85.06
62791;BME280;48830;53.426;10.300;2023-08-07T00:24:31;100377.09;;;23.69;85.58
62791;BME280;48830;53.426;10.300;2023-08-07T00:26:56;100372.69;;;23.70;85.74
62791;BME280;48830;53.426;10.300;2023-08-07T00:29:22;100377.09;;;23.69;85.50
62791;BME280;48830;53.426;10.300;2023-08-07T00:31:47;100376.25;;;23.69;85.49
62791;BME280;48830;53.426;10.300;2023-08-07T00:34:13;100374.47;;;23.69;85.68
62791;BME280;48830;53.426;10.300;2023-08-07T00:36:38;100376.31;;;23.67;85.10
62791;BME280;48830;53.426;10.300;2023-08-07T00:39:03;100376.25;;;23.69;85.31
62791;BME280;48830;53.426;10.300;2023-08-07T00:41:29;100371.06;;;23.67;85.17
62791;BME280;48830;53.426;10.300;2023-08-07T00:43:55;100376.31;;;23.67;85.04
62791;BME280;48830;53.426;10.300;2023-08-07T00:46:20;100377.19;;;23.68;85.47
62791;BME280;48830;53.426;10.300;2023-08-07T00:48:45;100371.06;;;23.67;85.18
62791;BME280;48830;53.426;10.300;2023-08-07T00:51:11;100365.97;;;23.64;85.58
62791;BME280;48830;53.426;10.300;2023-08-07T00:53:37;100371.22;;;23.64;85.76
62791;BME280;48830;53.426;10.300;2023-08-07T00:56:03;100367.75;;;23.62;85.19
62791;BME280;48830;53.426;10.300;2023-08-07T00:58:28;100368.59;;;23.64;85.33
62791;BME280;48830;53.426;10.300;2023-08-07T01:00:56;100368.66;;;23.63;85.89
62791;BME280;48830;53.426;10.300;2023-08-07T01:03:22;100374.59;;;23.66;85.33
62791;BME280;48830;53.426;10.300;2023-08-07T01:05:48;100369.34;;;23.66;85.34
62791;BME280;48830;53.426;10.300;2023-08-07T01:08:13;100374.59;;;23.66;85.29
62791;BME280;48830;53.426;10.300;2023-08-07T01:13:07;100366.81;;;23.65;85.41
62791;BME280;48830;53.426;10.300;2023-08-07T01:15:35;100370.28;;;23.65;85.32
62791;BME280;48830;53.426;10.300;2023-08-07T01:18:02;100369.34;;;23.66;85.27
62791;BME280;48830;53.426;10.300;2023-08-07T01:20:29;100368.59;;;23.64;85.30
62791;BME280;48830;53.426;10.300;2023-08-07T01:22:54;100368.59;;;23.64;84.85
62791;BME280;48830;53.426;10.300;2023-08-07T01:25:20;100364.25;;;23.63;84.89
62791;BME280;48830;53.426;10.300;2023-08-07T01:28:02;100363.34;;;23.64;85.39
62791;BME280;48830;53.426;10.300;2023-08-07T01:30:38;100359.03;;;23.63;85.35
62791;BME280;48830;53.426;10.300;2023-08-07T01:35:30;100360.81;;;23.61;84.83
62791;BME280;48830;53.426;10.300;2023-08-07T01:37:57;100351.16;;;23.62;85.45
62791;BME280;48830;53.426;10.300;2023-08-07T01:40:24;100357.25;;;23.62;84.92
62791;BME280;48830;53.426;10.300;2023-08-07T01:42:52;100352.00;;;23.62;85.57
62791;BME280;48830;53.426;10.300;2023-08-07T01:45:24;100348.53;;;23.62;85.00
62791;BME280;48830;53.426;10.300;2023-08-07T01:47:50;100351.16;;;23.62;85.63
62791;BME280;48830;53.426;10.300;2023-08-07T01:50:15;100354.72;;;23.61;85.37
62791;BME280;48830;53.426;10.300;2023-08-07T01:52:40;100353.88;;;23.60;85.49
62791;BME280;48830;53.426;10.300;2023-08-07T01:55:06;100340.75;;;23.60;85.06
62791;BME280;48830;53.426;10.300;2023-08-07T01:57:31;100343.38;;;23.60;84.72
62791;BME280;48830;53.426;10.300;2023-08-07T01:59:57;100342.44;;;23.61;85.33
62791;BME280;48830;53.426;10.300;2023-08-07T02:02:22;100341.66;;;23.59;84.95
62791;BME280;48830;53.426;10.300;2023-08-07T02:04:48;100345.22;;;23.58;84.75
62791;BME280;48830;53.426;10.300;2023-08-07T02:07:14;100344.28;;;23.59;85.52
62791;BME280;48830;53.426;10.300;2023-08-07T02:09:39;100344.28;;;23.59;85.09
62791;BME280;48830;53.426;10.300;2023-08-07T02:12:04;100343.53;;;23.57;84.84
62791;BME280;48830;53.426;10.300;2023-08-07T02:14:30;100341.78;;;23.56;85.21
62791;BME280;48830;53.426;10.300;2023-08-07T02:16:55;100341.78;;;23.56;84.88
62791;BME280;48830;53.426;10.300;2023-08-07T02:19:21;100340.94;;;23.55;85.05
62791;BME280;48830;53.426;10.300;2023-08-07T02:21:46;100342.72;;;23.55;84.88
62791;BME280;48830;53.426;10.300;2023-08-07T02:24:12;100343.66;;;23.54;84.86
62791;BME280;48830;53.426;10.300;2023-08-07T02:26:38;100340.09;;;23.55;84.98
62791;BME280;48830;53.426;10.300;2023-08-07T02:29:04;100339.25;;;23.54;85.34
62791;BME280;48830;53.426;10.300;2023-08-07T02:31:31;100340.09;;;23.55;85.10
62791;BME280;48830;53.426;10.300;2023-08-07T02:33:57;100340.09;;;23.55;85.20
62791;BME280;48830;53.426;10.300;2023-08-07T02:36:22;100333.16;;;23.54;84.85
62791;BME280;48830;53.426;10.300;2023-08-07T02:38:47;100335.78;;;23.54;85.23
62791;BME280;48830;53.426;10.300;2023-08-07T02:41:13;100332.31;;;23.53;85.04
62791;BME280;48830;53.426;10.300;2023-08-07T02:43:38;100335.00;;;23.52;85.33
62791;BME280;48830;53.426;10.300;2023-08-07T02:46:03;100330.63;;;23.52;85.12
62791;BME280;48830;53.426;10.300;2023-08-07T02:48:30;100341.09;;;23.52;85.04
62791;BME280;48830;53.426;10.300;2023-08-07T02:50:55;100343.66;;;23.54;84.98
62791;BME280;48830;53.426;10.300;2023-08-07T02:53:21;100341.97;;;23.53;84.92
62791;BME280;48830;53.426;10.300;2023-08-07T02:55:46;100336.72;;;23.53;84.80
62791;BME280;48830;53.426;10.300;2023-08-07T02:58:11;100335.84;;;23.52;85.15
62791;BME280;48830;53.426;10.300;2023-08-07T03:00:37;100336.72;;;23.53;84.61
62791;BME280;48830;53.426;10.300;2023-08-07T03:03:02;100339.34;;;23.53;84.92
62791;BME280;48830;53.426;10.300;2023-08-07T03:05:27;100339.34;;;23.53;84.95
62791;BME280;48830;53.426;10.300;2023-08-07T03:07:53;100337.63;;;23.52;85.01
62791;BME280;48830;53.426;10.300;2023-08-07T03:10:18;100337.63;;;23.52;84.88
62791;BME280;48830;53.426;10.300;2023-08-07T03:12:44;100345.50;;;23.52;84.88
62791;BME280;48830;53.426;10.300;2023-08-07T03:15:09;100335.00;;;23.52;84.90
62791;BME280;48830;53.426;10.300;2023-08-07T03:17:35;100344.63;;;23.51;84.74
62791;BME280;48830;53.426;10.300;2023-08-07T03:20:01;100347.31;;;23.50;85.15
62791;BME280;48830;53.426;10.300;2023-08-07T03:22:26;100343.78;;;23.51;85.19
62791;BME280;48830;53.426;10.300;2023-08-07T03:24:51;100347.31;;;23.50;84.69
62791;BME280;48830;53.426;10.300;2023-08-07T03:27:17;100346.47;;;23.49;85.09
62791;BME280;48830;53.426;10.300;2023-08-07T03:29:43;100352.56;;;23.50;85.07
62791;BME280;48830;53.426;10.300;2023-08-07T03:32:08;100345.63;;;23.49;85.15
62791;BME280;48830;53.426;10.300;2023-08-07T03:34:34;100351.66;;;23.51;84.95
62791;BME280;48830;53.426;10.300;2023-08-07T03:37:00;100349.19;;;23.48;85.19
62791;BME280;48830;53.426;10.300;2023-08-07T03:39:25;100348.38;;;23.46;85.03
62791;BME280;48830;53.426;10.300;2023-08-07T03:41:51;100344.00;;;23.46;84.71
62791;BME280;48830;53.426;10.300;2023-08-07T03:44:17;100344.06;;;23.45;85.23
62791;BME280;48830;53.426;10.300;2023-08-07T03:46:42;100342.28;;;23.45;84.96
62791;BME280;48830;53.426;10.300;2023-08-07T03:49:07;100343.09;;;23.47;84.89
62791;BME280;48830;53.426;10.300;2023-08-07T03:51:33;100356.25;;;23.46;84.97
62791;BME280;48830;53.426;10.300;2023-08-07T03:53:58;100351.00;;;23.46;85.09
62791;BME280;48830;53.426;10.300;2023-08-07T03:56:24;100351.00;;;23.46;85.03
62791;BME280;48830;53.426;10.300;2023-08-07T03:58:50;100341.44;;;23.45;85.37
62791;BME280;48830;53.426;10.300;2023-08-07T04:01:16;100342.25;;;23.47;85.17
62791;BME280;48830;53.426;10.300;2023-08-07T04:03:42;100345.75;;;23.46;84.98
62791;BME280;48830;53.426;10.300;2023-08-07T04:06:07;100340.50;;;23.46;84.77
62791;BME280;48830;53.426;10.300;2023-08-07T04:08:33;100339.66;;;23.45;85.15
62791;BME280;48830;53.426;10.300;2023-08-07T04:11:02;100336.19;;;23.45;84.67
62791;BME280;48830;53.426;10.300;2023-08-07T04:13:28;100338.81;;;23.45;84.85
62791;BME280;48830;53.426;10.300;2023-08-07T04:15:53;100332.63;;;23.46;84.73
62791;BME280;48830;53.426;10.300;2023-08-07T04:18:20;100334.41;;;23.45;84.77
62791;BME280;48830;53.426;10.300;2023-08-07T04:20:52;100330.94;;;23.45;84.58
62791;BME280;48830;53.426;10.300;2023-08-07T04:23:19;100335.50;;;23.41;84.50
62791;BME280;48830;53.426;10.300;2023-08-07T04:25:45;100339.66;;;23.45;85.06
62791;BME280;48830;53.426;10.300;2023-08-07T04:28:11;100338.81;;;23.45;85.03
62791;BME280;48830;53.426;10.300;2023-08-07T04:30:36;100343.28;;;23.43;84.63
62791;BME280;48830;53.426;10.300;2023-08-07T04:33:01;100349.31;;;23.45;84.89
62791;BME280;48830;53.426;10.300;2023-08-07T04:35:27;100342.38;;;23.44;84.85
62791;BME280;48830;53.426;10.300;2023-08-07T04:37:53;100342.38;;;23.44;84.91
62791;BME280;48830;53.426;10.300;2023-08-07T04:40:18;100350.31;;;23.42;84.91
62791;BME280;48830;53.426;10.300;2023-08-07T04:42:44;100348.63;;;23.41;84.72
62791;BME280;48830;53.426;10.300;2023-08-07T04:45:09;100359.94;;;23.42;85.02
62791;BME280;48830;53.426;10.300;2023-08-07T04:47:34;100362.56;;;23.42;84.84
62791;BME280;48830;53.426;10.300;2023-08-07T04:50:00;100359.94;;;23.42;85.09
62791;BME280;48830;53.426;10.300;2023-08-07T04:52:26;100360.81;;;23.42;84.71
62791;BME280;48830;53.426;10.300;2023-08-07T04:54:51;100364.34;;;23.41;85.01
62791;BME280;48830;53.426;10.300;2023-08-07T04:57:16;100360.81;;;23.42;84.79
62791;BME280;48830;53.426;10.300;2023-08-07T04:59:42;100355.56;;;23.42;84.66
62791;BME280;48830;53.426;10.300;2023-08-07T05:02:07;100358.09;;;23.44;84.57
62791;BME280;48830;53.426;10.300;2023-08-07T05:04:33;100360.66;;;23.45;84.64
62791;BME280;48830;53.426;10.300;2023-08-07T05:06:58;100360.66;;;23.45;85.00
62791;BME280;48830;53.426;10.300;2023-08-07T05:09:23;100359.81;;;23.45;84.56
62791;BME280;48830;53.426;10.300;2023-08-07T05:11:49;100348.47;;;23.44;84.93
62791;BME280;48830;53.426;10.300;2023-08-07T05:14:14;100349.31;;;23.45;85.02
62791;BME280;48830;53.426;10.300;2023-08-07T05:16:39;100344.97;;;23.44;84.89
62791;BME280;48830;53.426;10.300;2023-08-07T05:19:05;100348.38;;;23.46;84.97
62791;BME280;48830;53.426;10.300;2023-08-07T05:21:30;100349.19;;;23.48;84.58
62791;BME280;48830;53.426;10.300;2023-08-07T05:23:55;100351.81;;;23.48;84.46
62791;BME280;48830;53.426;10.300;2023-08-07T05:26:21;100345.63;;;23.49;84.63
62791;BME280;48830;53.426;10.300;2023-08-07T05:28:46;100350.88;;;23.49;84.88
62791;BME280;48830;53.426;10.300;2023-08-07T05:31:12;100349.94;;;23.50;85.16
62791;BME280;48830;53.426;10.300;2023-08-07T05:33:37;100353.50;;;23.49;85.07
62791;BME280;48830;53.426;10.300;2023-08-07T05:36:02;100359.50;;;23.51;84.74
62791;BME280;48830;53.426;10.300;2023-08-07T05:38:27;100358.66;;;23.50;85.04
62791;BME280;48830;53.426;10.300;2023-08-07T05:40:53;100359.50;;;23.51;84.98
62791;BME280;48830;53.426;10.300;2023-08-07T05:43:18;100350.81;;;23.50;84.66
62791;BME280;48830;53.426;10.300;2023-08-07T05:45:44;100357.13;;;23.46;85.24
62791;BME280;48830;53.426;10.300;2023-08-07T05:48:11;100360.44;;;23.50;86.15
62791;BME280;48830;53.426;10.300;2023-08-07T05:50:36;100362.09;;;23.52;87.09
62791;BME280;48830;53.426;10.300;2023-08-07T05:53:02;100363.78;;;23.53;88.16
62791;BME280;48830;53.426;10.300;2023-08-07T05:55:28;100362.78;;;23.56;88.50
62791;BME280;48830;53.426;10.300;2023-08-07T05:57:53;100354.22;;;23.52;87.00
62791;BME280;48830;53.426;10.300;2023-08-07T06:00:18;100356.56;;;23.58;88.85
62791;BME280;48830;53.426;10.300;2023-08-07T06:02:44;100363.81;;;23.72;90.55
62791;BME280;48830;53.426;10.300;2023-08-07T06:05:10;100356.03;;;23.90;90.12
62791;BME280;48830;53.426;10.300;2023-08-07T06:07:38;100360.66;;;23.85;88.23
62791;BME280;48830;53.426;10.300;2023-08-07T06:10:04;100356.88;;;23.90;87.32
62791;BME280;48830;53.426;10.300;2023-08-07T06:12:30;100353.75;;;24.01;87.86
62791;BME280;48830;53.426;10.300;2023-08-07T06:14:55;100359.56;;;23.89;89.15
62791;BME280;48830;53.426;10.300;2023-08-07T06:17:20;100366.25;;;23.96;89.54
62791;BME280;48830;53.426;10.300;2023-08-07T06:19:46;100365.75;;;23.88;88.45
62791;BME280;48830;53.426;10.300;2023-08-07T06:22:11;100368.94;;;23.94;88.95
62791;BME280;48830;53.426;10.300;2023-08-07T06:24:36;100367.19;;;23.95;87.16
62791;BME280;48830;53.426;10.300;2023-08-07T06:27:02;100369.34;;;24.04;88.42
62791;BME280;48830;53.426;10.300;2023-08-07T06:29:27;100365.53;;;24.11;88.03
62791;BME280;48830;53.426;10.300;2023-08-07T06:31:53;100366.16;;;24.16;86.68
62791;BME280;48830;53.426;10.300;2023-08-07T06:34:18;100358.56;;;24.10;87.54
62791;BME280;48830;53.426;10.300;2023-08-07T06:36:43;100363.69;;;24.13;86.99
62791;BME280;48830;53.426;10.300;2023-08-07T06:39:09;100370.50;;;24.17;85.95
62791;BME280;48830;53.426;10.300;2023-08-07T06:41:35;100361.75;;;24.35;84.95
62791;BME280;48830;53.426;10.300;2023-08-07T06:44:00;100367.00;;;24.35;84.68
62791;BME280;48830;53.426;10.300;2023-08-07T06:46:25;100367.91;;;24.34;85.32
62791;BME280;48830;53.426;10.300;2023-08-07T06:48:52;100369.63;;;24.35;84.21
62791;BME280;48830;53.426;10.300;2023-08-07T06:51:18;100366.19;;;24.33;84.54
62791;BME280;48830;53.426;10.300;2023-08-07T06:53:43;100357.88;;;24.43;83.81
62791;BME280;48830;53.426;10.300;2023-08-07T06:56:09;100356.19;;;24.42;84.41
62791;BME280;48830;53.426;10.300;2023-08-07T06:58:34;100373.94;;;24.37;84.16
62791;BME280;48830;53.426;10.300;2023-08-07T07:00:59;100372.25;;;24.35;83.67
62791;BME280;48830;53.426;10.300;2023-08-07T07:03:25;100381.53;;;24.43;84.00
62791;BME280;48830;53.426;10.300;2023-08-07T07:05:50;100375.59;;;24.39;83.84
62791;BME280;48830;53.426;10.300;2023-08-07T07:08:15;100384.66;;;24.32;84.98
62791;BME280;48830;53.426;10.300;2023-08-07T07:10:41;100378.38;;;24.17;86.29
62791;BME280;48830;53.426;10.300;2023-08-07T07:13:06;100377.72;;;23.93;79.55
62791;BME280;48830;53.426;10.300;2023-08-07T07:15:34;100380.03;;;23.62;78.55
62791;BME280;48830;53.426;10.300;2023-08-07T07:18:00;100381.22;;;23.36;78.49
62791;BME280;48830;53.426;10.300;2023-08-07T07:20:25;100383.56;;;23.21;79.80
62791;BME280;48830;53.426;10.300;2023-08-07T07:22:52;100386.97;;;23.23;79.95
62791;BME280;48830;53.426;10.300;2023-08-07T07:25:17;100379.91;;;23.25;81.15
62791;BME280;48830;53.426;10.300;2023-08-07T07:27:42;100392.56;;;23.55;81.01
62791;BME280;48830;53.426;10.300;2023-08-07T07:30:08;100393.16;;;23.62;80.82
62791;BME280;48830;53.426;10.300;2023-08-07T07:32:33;100394.63;;;23.88;80.79
62791;BME280;48830;53.426;10.300;2023-08-07T07:34:59;100395.91;;;23.98;80.27
62791;BME280;48830;53.426;10.300;2023-08-07T07:37:24;100403.84;;;23.77;81.66
62791;BME280;48830;53.426;10.300;2023-08-07T07:39:49;100397.59;;;23.80;82.70
62791;BME280;48830;53.426;10.300;2023-08-07T07:42:15;100402.50;;;23.88;81.91
62791;BME280;48830;53.426;10.300;2023-08-07T07:44:40;100402.81;;;24.00;81.18
62791;BME280;48830;53.426;10.300;2023-08-07T07:47:06;100400.56;;;24.10;80.67
62791;BME280;48830;53.426;10.300;2023-08-07T07:49:32;100406.53;;;24.14;81.14
62791;BME280;48830;53.426;10.300;2023-08-07T07:51:57;100409.09;;;24.15;81.10
62791;BME280;48830;53.426;10.300;2023-08-07T07:54:23;100414.63;;;24.09;80.81
62791;BME280;48830;53.426;10.300;2023-08-07T07:56:48;100414.00;;;24.04;81.19
62791;BME280;48830;53.426;10.300;2023-08-07T07:59:13;100428.91;;;24.03;82.05
62791;BME280;48830;53.426;10.300;2023-08-07T08:01:39;100434.88;;;24.07;81.75
62791;BME280;48830;53.426;10.300;2023-08-07T08:04:04;100423.72;;;24.02;81.56
62791;BME280;48830;53.426;10.300;2023-08-07T08:06:30;100436.22;;;23.97;81.99
62791;BME280;48830;53.426;10.300;2023-08-07T08:08:56;100434.44;;;24.16;81.03
62791;BME280;48830;53.426;10.300;2023-08-07T08:11:21;100429.63;;;24.07;80.91
62791;BME280;48830;53.426;10.300;2023-08-07T08:13:46;100428.78;;;24.06;82.03
62791;BME280;48830;53.426;10.300;2023-08-07T08:16:12;100426.72;;;24.13;81.82
62791;BME280;48830;53.426;10.300;2023-08-07T08:18:37;100422.72;;;24.23;81.28
62791;BME280;48830;53.426;10.300;2023-08-07T08:21:02;100427.81;;;24.26;81.54
62791;BME280;48830;53.426;10.300;2023-08-07T08:23:28;100425.81;;;24.31;81.98
62791;BME280;48830;53.426;10.300;2023-08-07T08:25:53;100424.00;;;24.33;81.86
62791;BME280;48830;53.426;10.300;2023-08-07T08:28:19;100425.69;;;24.34;82.78
62791;BME280;48830;53.426;10.300;2023-08-07T08:30:44;100431.81;;;24.16;82.77
62791;BME280;48830;53.426;10.300;2023-08-07T08:33:10;100433.53;;;24.17;83.27
62791;BME280;48830;53.426;10.300;2023-08-07T08:35:39;100439.19;;;24.08;83.18
62791;BME280;48830;53.426;10.300;2023-08-07T08:38:05;100466.81;;;24.17;82.00
62791;BME280;48830;53.426;10.300;2023-08-07T08:40:30;100475.59;;;24.16;81.74
62791;BME280;48830;53.426;10.300;2023-08-07T08:42:55;100471.22;;;24.16;81.36
62791;BME280;48830;53.426;10.300;2023-08-07T08:45:23;100474.03;;;24.30;80.82
62791;BME280;48830;53.426;10.300;2023-08-07T08:47:50;100480.34;;;24.26;81.42
62791;BME280;48830;53.426;10.300;2023-08-07T08:50:16;100478.53;;;24.28;81.00
62791;BME280;48830;53.426;10.300;2023-08-07T08:52:42;100481.78;;;24.33;80.56
62791;BME280;48830;53.426;10.300;2023-08-07T08:55:09;100489.03;;;24.28;81.55
62791;BME280;48830;53.426;10.300;2023-08-07T08:57:35;100495.25;;;24.26;81.55
62791;BME280;48830;53.426;10.300;2023-08-07T09:00:02;100487.03;;;24.33;81.41
62791;BME280;48830;53.426;10.300;2023-08-07T09:02:32;100489.97;;;24.27;80.79
62791;BME280;48830;53.426;10.300;2023-08-07T09:04:58;100491.88;;;24.24;82.18
62791;BME280;48830;53.426;10.300;2023-08-07T09:07:23;100487.47;;;24.24;81.77
62791;BME280;48830;53.426;10.300;2023-08-07T09:09:49;100479.69;;;24.42;80.50
62791;BME280;48830;53.426;10.300;2023-08-07T09:12:22;100486.63;;;24.43;80.93
62791;BME280;48830;53.426;10.300;2023-08-07T09:14:49;100485.09;;;24.39;81.86
62791;BME280;48830;53.426;10.300;2023-08-07T09:17:18;100484.75;;;24.26;82.17
62791;BME280;48830;53.426;10.300;2023-08-07T09:19:44;100485.91;;;24.20;82.36
62791;BME280;48830;53.426;10.300;2023-08-07T09:22:09;100482.09;;;24.27;81.97
62791;BME280;48830;53.426;10.300;2023-08-07T09:24:35;100477.69;;;24.28;81.23
62791;BME280;48830;53.426;10.300;2023-08-07T09:27:00;100478.38;;;24.31;81.28
62791;BME280;48830;53.426;10.300;2023-08-07T09:29:25;100475.09;;;24.26;81.25
62791;BME280;48830;53.426;10.300;2023-08-07T09:31:52;100485.34;;;24.32;81.03
62791;BME280;48830;53.426;10.300;2023-08-07T09:34:21;100491.50;;;24.31;80.79
62791;BME280;48830;53.426;10.300;2023-08-07T09:36:47;100481.66;;;24.37;79.95
62791;BME280;48830;53.426;10.300;2023-08-07T09:39:12;100494.00;;;24.34;80.31
62791;BME280;48830;53.426;10.300;2023-08-07T09:41:37;100492.72;;;24.24;81.07
62791;BME280;48830;53.426;10.300;2023-08-07T09:44:06;100492.00;;;24.21;81.50
62791;BME280;48830;53.426;10.300;2023-08-07T09:46:34;100496.00;;;24.29;80.54
62791;BME280;48830;53.426;10.300;2023-08-07T09:49:05;100489.53;;;24.37;79.24
62791;BME280;48830;53.426;10.300;2023-08-07T09:51:40;100496.44;;;24.39;79.95
62791;BME280;48830;53.426;10.300;2023-08-07T09:54:06;100485.72;;;24.44;78.20
62791;BME280;48830;53.426;10.300;2023-08-07T09:56:31;100489.53;;;24.37;78.30
62791;BME280;48830;53.426;10.300;2023-08-07T09:58:56;100494.75;;;24.38;79.31
62791;BME280;48830;53.426;10.300;2023-08-07T10:01:23;100495.44;;;24.42;78.69
62791;BME280;48830;53.426;10.300;2023-08-07T10:03:50;100498.88;;;24.44;78.55
62791;BME280;48830;53.426;10.300;2023-08-07T10:06:16;100500.69;;;24.42;78.23
62791;BME280;48830;53.426;10.300;2023-08-07T10:08:44;100495.44;;;24.42;76.64
62791;BME280;48830;53.426;10.300;2023-08-07T10:11:09;100511.28;;;24.40;77.93
62791;BME280;48830;53.426;10.300;2023-08-07T10:13:36;100507.59;;;24.44;76.87
62791;BME280;48830;53.426;10.300;2023-08-07T10:16:01;100508.88;;;24.35;78.09
62791;BME280;48830;53.426;10.300;2023-08-07T10:18:27;100506.25;;;24.35;76.38
62791;BME280;48830;53.426;10.300;2023-08-07T10:20:53;100514.63;;;24.44;76.82
62791;BME280;48830;53.426;10.300;2023-08-07T10:23:19;100519.72;;;24.47;76.04
62791;BME280;48830;53.426;10.300;2023-08-07T10:25:46;100522.84;;;24.36;75.70
62791;BME280;48830;53.426;10.300;2023-08-07T10:28:13;100522.00;;;24.35;75.14
62791;BME280;48830;53.426;10.300;2023-08-07T10:30:41;100513.91;;;24.40;75.80
62791;BME280;48830;53.426;10.300;2023-08-07T10:33:07;100525.41;;;24.38;76.02
62791;BME280;48830;53.426;10.300;2023-08-07T10:35:33;100515.53;;;24.43;75.62
62791;BME280;48830;53.426;10.300;2023-08-07T10:38:05;100523.16;;;24.49;74.87
62791;BME280;48830;53.426;10.300;2023-08-07T10:40:30;100509.78;;;24.53;75.40
62791;BME280;48830;53.426;10.300;2023-08-07T10:42:57;100519.44;;;24.53;75.21
62791;BME280;48830;53.426;10.300;2023-08-07T10:45:23;100508.94;;;24.53;75.57
62791;BME280;48830;53.426;10.300;2023-08-07T10:50:32;100513.88;;;24.59;75.05
62791;BME280;48830;53.426;10.300;2023-08-07T10:53:02;100515.91;;;24.54;75.50
62791;BME280;48830;53.426;10.300;2023-08-07T10:55:30;100519.72;;;24.47;75.98
62791;BME280;48830;53.426;10.300;2023-08-07T10:57:56;100535.91;;;24.38;75.19
62791;BME280;48830;53.426;10.300;2023-08-07T11:00:25;100541.28;;;24.34;74.93
62791;BME280;48830;53.426;10.300;2023-08-07T11:02:50;100550.22;;;24.30;75.37
62791;BME280;48830;53.426;10.300;2023-08-07T11:05:16;100550.06;;;24.35;75.42
62791;BME280;48830;53.426;10.300;2023-08-07T11:07:42;100539.72;;;24.30;73.76
62791;BME280;48830;53.426;10.300;2023-08-07T11:10:09;100523.66;;;24.38;74.70
62791;BME280;48830;53.426;10.300;2023-08-07T11:12:38;100529.59;;;24.42;74.61
62791;BME280;48830;53.426;10.300;2023-08-07T11:15:03;100530.09;;;24.50;74.71
62791;BME280;48830;53.426;10.300;2023-08-07T11:17:29;100523.56;;;24.58;74.19
62791;BME280;48830;53.426;10.300;2023-08-07T11:19:57;100521.00;;;24.57;74.55
62791;BME280;48830;53.426;10.300;2023-08-07T11:22:22;100534.06;;;24.58;74.15
62791;BME280;48830;53.426;10.300;2023-08-07T11:24:48;100529.41;;;24.65;74.24
62791;BME280;48830;53.426;10.300;2023-08-07T11:27:14;100523.41;;;24.61;74.28
62791;BME280;48830;53.426;10.300;2023-08-07T11:29:39;100520.88;;;24.60;73.94
62791;BME280;48830;53.426;10.300;2023-08-07T11:32:05;100534.78;;;24.62;73.88
62791;BME280;48830;53.426;10.300;2023-08-07T11:34:30;100531.72;;;24.71;73.44
62791;BME280;48830;53.426;10.300;2023-08-07T11:36:56;100537.00;;;24.71;74.25
62791;BME280;48830;53.426;10.300;2023-08-07T11:39:23;100550.56;;;24.62;74.04
62791;BME280;48830;53.426;10.300;2023-08-07T11:41:52;100561.19;;;24.59;73.51
62791;BME280;48830;53.426;10.300;2023-08-07T11:44:18;100564.06;;;24.54;72.58
62791;BME280;48830;53.426;10.300;2023-08-07T11:46:43;100577.25;;;24.53;72.98
62791;BME280;48830;53.426;10.300;2023-08-07T11:49:08;100575.47;;;24.53;72.96
62791;BME280;48830;53.426;10.300;2023-08-07T11:51:35;100578.19;;;24.52;73.23
62791;BME280;48830;53.426;10.300;2023-08-07T11:54:00;100578.53;;;24.63;73.14
62791;BME280;48830;53.426;10.300;2023-08-07T11:56:26;100579.38;;;24.64;73.32
62791;BME280;48830;53.426;10.300;2023-08-07T11:58:52;100562.75;;;24.63;73.39
62791;BME280;48830;53.426;10.300;2023-08-07T12:01:19;100568.31;;;24.57;73.47
62791;BME280;48830;53.426;10.300;2023-08-07T12:06:16;100559.88;;;24.50;71.11
62791;BME280;48830;53.426;10.300;2023-08-07T12:08:42;100563.28;;;24.32;67.52
62791;BME280;48830;53.426;10.300;2023-08-07T12:11:11;100573.22;;;24.25;65.52
62791;BME280;48830;53.426;10.300;2023-08-07T12:13:40;100573.56;;;24.18;65.22
62791;BME280;48830;53.426;10.300;2023-08-07T12:16:06;100583.72;;;24.25;65.82
62791;BME280;48830;53.426;10.300;2023-08-07T12:18:32;100582.94;;;24.23;68.72
62791;BME280;48830;53.426;10.300;2023-08-07T12:21:04;100576.59;;;24.48;72.59
62791;BME280;48830;53.426;10.300;2023-08-07T12:23:34;100576.91;;;24.60;71.18
62791;BME280;48830;53.426;10.300;2023-08-07T12:26:00;100586.50;;;24.61;71.25
62791;BME280;48830;53.426;10.300;2023-08-07T12:28:25;100590.50;;;24.70;70.80
62791;BME280;48830;53.426;10.300;2023-08-07T12:30:51;100581.38;;;24.58;71.46
62791;BME280;48830;53.426;10.300;2023-08-07T12:33:17;100577.97;;;24.56;73.04
62791;BME280;48830;53.426;10.300;2023-08-07T12:35:42;100606.09;;;24.54;73.65
62791;BME280;48830;53.426;10.300;2023-08-07T12:38:07;100618.59;;;24.49;74.58
62791;BME280;48830;53.426;10.300;2023-08-07T12:40:34;100604.81;;;24.44;75.20
62791;BME280;48830;53.426;10.300;2023-08-07T12:43:01;100613.56;;;24.45;75.29